sensor_id;sensor_type;location;lat;lon;timestamp;P1;durP1;ratioP1;P2;durP2;ratioP2
32216;SDS011;67098;51.140;4.088;2024-03-07T00:00:41;70.88;;;35.95;;
32216;SDS011;67098;51.140;4.088;2024-03-07T00:03:08;71.75;;;37.53;;
32216;SDS011;67098;51.140;4.088;2024-03-07T00:05:33;66.15;;;36.13;;
32216;SDS011;67098;51.140;4.088;2024-03-07T00:07:59;80.72;;;41.42;;
32216;SDS011;67098;51.140;4.088;2024-03-07T00:10:25;74.65;;;38.08;;
32216;SDS011;67098;51.140;4.088;2024-03-07T00:12:50;77.25;;;41.58;;
32216;SDS011;67098;51.140;4.088;2024-03-07T00:15:16;79.18;;;41.88;;
32216;SDS011;67098;51.140;4.088;2024-03-07T00:17:42;79.47;;;42.15;;
32216;SDS011;67098;51.140;4.088;2024-03-07T00:20:08;90.05;;;43.47;;
32216;SDS011;67098;51.140;4.088;2024-03-07T00:22:39;85.68;;;43.97;;
32216;SDS011;67098;51.140;4.088;2024-03-07T00:25:06;88.47;;;44.42;;
32216;SDS011;67098;51.140;4.088;2024-03-07T00:27:34;86.75;;;43.15;;
32216;SDS011;67098;51.140;4.088;2024-03-07T00:30:01;80.68;;;41.67;;
32216;SDS011;67098;51.140;4.088;2024-03-07T00:32:27;85.20;;;40.17;;
32216;SDS011;67098;51.140;4.088;2024-03-07T00:35:00;78.50;;;41.38;;
32216;SDS011;67098;51.140;4.088;2024-03-07T00:37:28;82.95;;;42.20;;
32216;SDS011;67098;51.140;4.088;2024-03-07T00:39:55;85.18;;;42.55;;
32216;SDS011;67098;51.140;4.088;2024-03-07T00:42:21;92.40;;;44.05;;
32216;SDS011;67098;51.140;4.088;2024-03-07T00:44:47;83.65;;;42.75;;
32216;SDS011;67098;51.140;4.088;2024-03-07T00:47:14;79.20;;;41.15;;
32216;SDS011;67098;51.140;4.088;2024-03-07T00:49:43;87.03;;;44.28;;
32216;SDS011;67098;51.140;4.088;2024-03-07T00:52:10;85.47;;;42.22;;
32216;SDS011;67098;51.140;4.088;2024-03-07T00:54:36;87.47;;;44.28;;
32216;SDS011;67098;51.140;4.088;2024-03-07T00:57:02;93.95;;;46.80;;
32216;SDS011;67098;51.140;4.088;2024-03-07T00:59:27;90.00;;;44.78;;
32216;SDS011;67098;51.140;4.088;2024-03-07T01:01:53;91.85;;;44.88;;
32216;SDS011;67098;51.140;4.088;2024-03-07T01:04:19;94.25;;;47.75;;
32216;SDS011;67098;51.140;4.088;2024-03-07T01:06:45;98.07;;;47.60;;
32216;SDS011;67098;51.140;4.088;2024-03-07T01:09:10;99.53;;;48.22;;
32216;SDS011;67098;51.140;4.088;2024-03-07T01:11:40;109.85;;;49.60;;
32216;SDS011;67098;51.140;4.088;2024-03-07T01:14:13;96.65;;;47.90;;
32216;SDS011;67098;51.140;4.088;2024-03-07T01:16:39;99.80;;;47.47;;
32216;SDS011;67098;51.140;4.088;2024-03-07T01:19:05;103.40;;;49.08;;
32216;SDS011;67098;51.140;4.088;2024-03-07T01:21:32;95.88;;;46.92;;
32216;SDS011;67098;51.140;4.088;2024-03-07T01:24:03;99.55;;;48.50;;
32216;SDS011;67098;51.140;4.088;2024-03-07T01:26:29;93.13;;;46.63;;
32216;SDS011;67098;51.140;4.088;2024-03-07T01:28:56;98.20;;;47.60;;
32216;SDS011;67098;51.140;4.088;2024-03-07T01:31:23;94.30;;;47.65;;
32216;SDS011;67098;51.140;4.088;2024-03-07T01:33:49;99.40;;;47.40;;
32216;SDS011;67098;51.140;4.088;2024-03-07T01:36:15;104.35;;;49.45;;
32216;SDS011;67098;51.140;4.088;2024-03-07T01:38:41;100.00;;;48.00;;
32216;SDS011;67098;51.140;4.088;2024-03-07T01:41:07;105.80;;;48.85;;
32216;SDS011;67098;51.140;4.088;2024-03-07T01:43:33;98.00;;;47.17;;
32216;SDS011;67098;51.140;4.088;2024-03-07T01:45:59;104.80;;;51.33;;
32216;SDS011;67098;51.140;4.088;2024-03-07T01:48:27;101.10;;;48.28;;
32216;SDS011;67098;51.140;4.088;2024-03-07T01:53:26;99.88;;;47.33;;
32216;SDS011;67098;51.140;4.088;2024-03-07T01:55:53;106.05;;;50.17;;
32216;SDS011;67098;51.140;4.088;2024-03-07T01:58:20;105.72;;;49.42;;
32216;SDS011;67098;51.140;4.088;2024-03-07T02:00:46;102.45;;;49.15;;
32216;SDS011;67098;51.140;4.088;2024-03-07T02:03:16;105.50;;;49.90;;
32216;SDS011;67098;51.140;4.088;2024-03-07T02:05:42;100.55;;;47.70;;
32216;SDS011;67098;51.140;4.088;2024-03-07T02:08:08;95.32;;;45.78;;
32216;SDS011;67098;51.140;4.088;2024-03-07T02:10:33;95.63;;;46.38;;
32216;SDS011;67098;51.140;4.088;2024-03-07T02:12:59;96.57;;;46.38;;
32216;SDS011;67098;51.140;4.088;2024-03-07T02:15:28;92.22;;;43.97;;
32216;SDS011;67098;51.140;4.088;2024-03-07T02:17:54;96.45;;;45.65;;
32216;SDS011;67098;51.140;4.088;2024-03-07T02:20:20;88.28;;;44.28;;
32216;SDS011;67098;51.140;4.088;2024-03-07T02:22:46;87.85;;;43.95;;
32216;SDS011;67098;51.140;4.088;2024-03-07T02:25:11;90.55;;;43.00;;
32216;SDS011;67098;51.140;4.088;2024-03-07T02:27:41;88.25;;;43.88;;
32216;SDS011;67098;51.140;4.088;2024-03-07T02:30:06;85.75;;;41.58;;
32216;SDS011;67098;51.140;4.088;2024-03-07T02:32:36;84.30;;;42.20;;
32216;SDS011;67098;51.140;4.088;2024-03-07T02:35:03;81.65;;;42.05;;
32216;SDS011;67098;51.140;4.088;2024-03-07T02:37:30;82.43;;;41.65;;
32216;SDS011;67098;51.140;4.088;2024-03-07T02:39:56;82.78;;;40.50;;
32216;SDS011;67098;51.140;4.088;2024-03-07T02:42:22;88.78;;;42.63;;
32216;SDS011;67098;51.140;4.088;2024-03-07T02:44:47;88.10;;;41.75;;
32216;SDS011;67098;51.140;4.088;2024-03-07T02:47:13;83.90;;;40.55;;
32216;SDS011;67098;51.140;4.088;2024-03-07T02:49:39;79.80;;;39.83;;
32216;SDS011;67098;51.140;4.088;2024-03-07T02:52:04;85.68;;;41.00;;
32216;SDS011;67098;51.140;4.088;2024-03-07T02:54:32;79.88;;;39.45;;
32216;SDS011;67098;51.140;4.088;2024-03-07T02:56:59;80.97;;;40.90;;
32216;SDS011;67098;51.140;4.088;2024-03-07T02:59:25;83.65;;;41.88;;
32216;SDS011;67098;51.140;4.088;2024-03-07T03:01:51;85.18;;;41.70;;
32216;SDS011;67098;51.140;4.088;2024-03-07T03:04:16;87.95;;;40.50;;
32216;SDS011;67098;51.140;4.088;2024-03-07T03:06:43;85.28;;;41.92;;
32216;SDS011;67098;51.140;4.088;2024-03-07T03:09:08;86.65;;;40.78;;
32216;SDS011;67098;51.140;4.088;2024-03-07T03:11:42;80.82;;;41.13;;
32216;SDS011;67098;51.140;4.088;2024-03-07T03:14:09;82.75;;;39.88;;
32216;SDS011;67098;51.140;4.088;2024-03-07T03:16:36;85.70;;;40.55;;
32216;SDS011;67098;51.140;4.088;2024-03-07T03:19:01;89.10;;;42.35;;
32216;SDS011;67098;51.140;4.088;2024-03-07T03:21:28;77.63;;;39.60;;
32216;SDS011;67098;51.140;4.088;2024-03-07T03:23:54;80.72;;;40.88;;
32216;SDS011;67098;51.140;4.088;2024-03-07T03:26:20;85.30;;;40.67;;
32216;SDS011;67098;51.140;4.088;2024-03-07T03:28:47;85.50;;;40.08;;
32216;SDS011;67098;51.140;4.088;2024-03-07T03:31:12;78.90;;;39.03;;
32216;SDS011;67098;51.140;4.088;2024-03-07T03:33:39;83.90;;;38.55;;
32216;SDS011;67098;51.140;4.088;2024-03-07T03:36:06;88.65;;;39.83;;
32216;SDS011;67098;51.140;4.088;2024-03-07T03:38:32;85.80;;;40.13;;
32216;SDS011;67098;51.140;4.088;2024-03-07T03:40:58;80.20;;;38.25;;
32216;SDS011;67098;51.140;4.088;2024-03-07T03:43:24;83.15;;;39.15;;
32216;SDS011;67098;51.140;4.088;2024-03-07T03:45:49;73.43;;;37.75;;
32216;SDS011;67098;51.140;4.088;2024-03-07T03:48:15;82.75;;;38.05;;
32216;SDS011;67098;51.140;4.088;2024-03-07T03:50:41;77.55;;;37.55;;
32216;SDS011;67098;51.140;4.088;2024-03-07T03:53:07;70.03;;;35.15;;
32216;SDS011;67098;51.140;4.088;2024-03-07T03:55:33;67.05;;;34.75;;
32216;SDS011;67098;51.140;4.088;2024-03-07T03:57:59;71.97;;;35.10;;
32216;SDS011;67098;51.140;4.088;2024-03-07T04:00:25;63.70;;;33.60;;
32216;SDS011;67098;51.140;4.088;2024-03-07T04:02:51;69.53;;;33.85;;
32216;SDS011;67098;51.140;4.088;2024-03-07T04:05:17;70.57;;;36.20;;
32216;SDS011;67098;51.140;4.088;2024-03-07T04:07:44;76.65;;;36.17;;
32216;SDS011;67098;51.140;4.088;2024-03-07T04:10:10;82.43;;;38.00;;
32216;SDS011;67098;51.140;4.088;2024-03-07T04:12:38;73.43;;;36.75;;
32216;SDS011;67098;51.140;4.088;2024-03-07T04:15:05;72.93;;;35.75;;
32216;SDS011;67098;51.140;4.088;2024-03-07T04:17:32;76.00;;;36.40;;
32216;SDS011;67098;51.140;4.088;2024-03-07T04:19:59;73.70;;;37.53;;
32216;SDS011;67098;51.140;4.088;2024-03-07T04:22:34;72.38;;;35.65;;
32216;SDS011;67098;51.140;4.088;2024-03-07T04:25:04;74.50;;;35.63;;
32216;SDS011;67098;51.140;4.088;2024-03-07T04:27:32;79.25;;;35.08;;
32216;SDS011;67098;51.140;4.088;2024-03-07T04:29:59;77.05;;;36.35;;
32216;SDS011;67098;51.140;4.088;2024-03-07T04:32:28;77.03;;;36.72;;
32216;SDS011;67098;51.140;4.088;2024-03-07T04:34:54;74.93;;;36.50;;
32216;SDS011;67098;51.140;4.088;2024-03-07T04:37:22;79.03;;;37.03;;
32216;SDS011;67098;51.140;4.088;2024-03-07T04:39:48;74.30;;;37.25;;
32216;SDS011;67098;51.140;4.088;2024-03-07T04:42:14;81.70;;;39.03;;
32216;SDS011;67098;51.140;4.088;2024-03-07T04:44:40;78.18;;;37.88;;
32216;SDS011;67098;51.140;4.088;2024-03-07T04:47:06;86.05;;;38.58;;
32216;SDS011;67098;51.140;4.088;2024-03-07T04:49:32;83.07;;;39.42;;
32216;SDS011;67098;51.140;4.088;2024-03-07T04:52:00;94.88;;;40.13;;
32216;SDS011;67098;51.140;4.088;2024-03-07T04:54:27;91.20;;;41.72;;
32216;SDS011;67098;51.140;4.088;2024-03-07T04:56:54;97.78;;;45.72;;
32216;SDS011;67098;51.140;4.088;2024-03-07T04:59:20;107.05;;;47.83;;
32216;SDS011;67098;51.140;4.088;2024-03-07T05:01:47;109.05;;;48.40;;
32216;SDS011;67098;51.140;4.088;2024-03-07T05:04:18;112.35;;;49.78;;
32216;SDS011;67098;51.140;4.088;2024-03-07T05:06:44;120.38;;;53.08;;
32216;SDS011;67098;51.140;4.088;2024-03-07T05:09:13;118.10;;;50.75;;
32216;SDS011;67098;51.140;4.088;2024-03-07T05:11:48;122.32;;;51.75;;
32216;SDS011;67098;51.140;4.088;2024-03-07T05:14:17;124.75;;;52.72;;
32216;SDS011;67098;51.140;4.088;2024-03-07T05:16:43;133.43;;;54.65;;
32216;SDS011;67098;51.140;4.088;2024-03-07T05:19:08;122.28;;;53.40;;
32216;SDS011;67098;51.140;4.088;2024-03-07T05:21:35;132.27;;;52.70;;
32216;SDS011;67098;51.140;4.088;2024-03-07T05:24:06;134.13;;;54.70;;
32216;SDS011;67098;51.140;4.088;2024-03-07T05:26:33;148.55;;;55.88;;
32216;SDS011;67098;51.140;4.088;2024-03-07T05:29:05;131.07;;;55.25;;
32216;SDS011;67098;51.140;4.088;2024-03-07T05:31:36;138.57;;;55.13;;
32216;SDS011;67098;51.140;4.088;2024-03-07T05:34:14;132.65;;;53.97;;
32216;SDS011;67098;51.140;4.088;2024-03-07T05:36:41;133.48;;;56.60;;
32216;SDS011;67098;51.140;4.088;2024-03-07T05:39:14;142.32;;;57.33;;
32216;SDS011;67098;51.140;4.088;2024-03-07T05:41:42;148.43;;;57.07;;
32216;SDS011;67098;51.140;4.088;2024-03-07T05:44:10;144.55;;;55.50;;
32216;SDS011;67098;51.140;4.088;2024-03-07T05:46:39;146.20;;;57.25;;
32216;SDS011;67098;51.140;4.088;2024-03-07T05:49:13;143.02;;;57.03;;
32216;SDS011;67098;51.140;4.088;2024-03-07T05:51:40;158.70;;;59.75;;
32216;SDS011;67098;51.140;4.088;2024-03-07T05:54:10;145.47;;;57.70;;
32216;SDS011;67098;51.140;4.088;2024-03-07T05:56:38;145.27;;;58.03;;
32216;SDS011;67098;51.140;4.088;2024-03-07T05:59:04;156.68;;;60.80;;
32216;SDS011;67098;51.140;4.088;2024-03-07T06:01:36;149.55;;;58.42;;
32216;SDS011;67098;51.140;4.088;2024-03-07T06:04:03;159.98;;;59.55;;
32216;SDS011;67098;51.140;4.088;2024-03-07T06:06:36;156.70;;;58.40;;
32216;SDS011;67098;51.140;4.088;2024-03-07T06:09:06;153.15;;;58.58;;
32216;SDS011;67098;51.140;4.088;2024-03-07T06:11:37;144.85;;;58.33;;
32216;SDS011;67098;51.140;4.088;2024-03-07T06:14:04;147.80;;;58.63;;
32216;SDS011;67098;51.140;4.088;2024-03-07T06:16:31;146.23;;;59.15;;
32216;SDS011;67098;51.140;4.088;2024-03-07T06:19:00;155.52;;;58.85;;
32216;SDS011;67098;51.140;4.088;2024-03-07T06:21:29;156.32;;;59.72;;
32216;SDS011;67098;51.140;4.088;2024-03-07T06:23:58;139.07;;;57.50;;
32216;SDS011;67098;51.140;4.088;2024-03-07T06:26:25;154.10;;;60.00;;
32216;SDS011;67098;51.140;4.088;2024-03-07T06:29:21;156.18;;;59.13;;
32216;SDS011;67098;51.140;4.088;2024-03-07T06:31:47;150.57;;;59.20;;
32216;SDS011;67098;51.140;4.088;2024-03-07T06:34:12;147.65;;;58.47;;
32216;SDS011;67098;51.140;4.088;2024-03-07T06:36:39;153.52;;;60.75;;
32216;SDS011;67098;51.140;4.088;2024-03-07T06:39:05;159.70;;;61.22;;
32216;SDS011;67098;51.140;4.088;2024-03-07T06:41:32;148.45;;;57.03;;
32216;SDS011;67098;51.140;4.088;2024-03-07T06:43:58;141.98;;;58.08;;
32216;SDS011;67098;51.140;4.088;2024-03-07T06:46:24;137.02;;;54.25;;
32216;SDS011;67098;51.140;4.088;2024-03-07T06:48:50;132.75;;;54.38;;
32216;SDS011;67098;51.140;4.088;2024-03-07T06:51:16;131.23;;;53.40;;
32216;SDS011;67098;51.140;4.088;2024-03-07T06:53:43;135.65;;;54.03;;
32216;SDS011;67098;51.140;4.088;2024-03-07T06:56:10;135.90;;;54.88;;
32216;SDS011;67098;51.140;4.088;2024-03-07T06:58:38;118.35;;;49.97;;
32216;SDS011;67098;51.140;4.088;2024-03-07T07:01:04;125.03;;;50.08;;
32216;SDS011;67098;51.140;4.088;2024-03-07T07:03:34;125.55;;;52.20;;
32216;SDS011;67098;51.140;4.088;2024-03-07T07:06:00;133.48;;;54.95;;
32216;SDS011;67098;51.140;4.088;2024-03-07T07:08:27;142.43;;;56.30;;
32216;SDS011;67098;51.140;4.088;2024-03-07T07:10:56;146.05;;;58.50;;
32216;SDS011;67098;51.140;4.088;2024-03-07T07:13:23;177.50;;;62.55;;
32216;SDS011;67098;51.140;4.088;2024-03-07T07:15:50;179.30;;;65.20;;
32216;SDS011;67098;51.140;4.088;2024-03-07T07:18:19;193.55;;;66.20;;
32216;SDS011;67098;51.140;4.088;2024-03-07T07:20:46;191.90;;;68.03;;
32216;SDS011;67098;51.140;4.088;2024-03-07T07:23:12;202.93;;;70.32;;
32216;SDS011;67098;51.140;4.088;2024-03-07T07:25:38;201.60;;;67.82;;
32216;SDS011;67098;51.140;4.088;2024-03-07T07:28:05;194.38;;;66.82;;
32216;SDS011;67098;51.140;4.088;2024-03-07T07:30:33;215.18;;;69.35;;
32216;SDS011;67098;51.140;4.088;2024-03-07T07:32:59;219.02;;;70.05;;
32216;SDS011;67098;51.140;4.088;2024-03-07T07:35:24;227.25;;;73.05;;
32216;SDS011;67098;51.140;4.088;2024-03-07T07:37:51;227.88;;;72.40;;
32216;SDS011;67098;51.140;4.088;2024-03-07T07:40:19;218.80;;;73.05;;
32216;SDS011;67098;51.140;4.088;2024-03-07T07:42:50;241.55;;;75.07;;
32216;SDS011;67098;51.140;4.088;2024-03-07T07:45:17;231.68;;;75.03;;
32216;SDS011;67098;51.140;4.088;2024-03-07T07:50:11;253.98;;;78.57;;
32216;SDS011;67098;51.140;4.088;2024-03-07T07:52:48;251.68;;;77.78;;
32216;SDS011;67098;51.140;4.088;2024-03-07T07:55:19;243.68;;;74.90;;
32216;SDS011;67098;51.140;4.088;2024-03-07T07:57:46;215.18;;;73.00;;
32216;SDS011;67098;51.140;4.088;2024-03-07T08:00:15;207.57;;;69.47;;
32216;SDS011;67098;51.140;4.088;2024-03-07T08:02:54;210.07;;;67.25;;
32216;SDS011;67098;51.140;4.088;2024-03-07T08:05:25;205.75;;;68.75;;
32216;SDS011;67098;51.140;4.088;2024-03-07T08:07:59;189.18;;;66.03;;
32216;SDS011;67098;51.140;4.088;2024-03-07T08:10:27;198.23;;;66.93;;
32216;SDS011;67098;51.140;4.088;2024-03-07T08:12:57;196.88;;;66.90;;
32216;SDS011;67098;51.140;4.088;2024-03-07T08:15:24;199.85;;;67.55;;
32216;SDS011;67098;51.140;4.088;2024-03-07T08:17:51;176.30;;;65.00;;
32216;SDS011;67098;51.140;4.088;2024-03-07T08:20:18;169.27;;;63.97;;
32216;SDS011;67098;51.140;4.088;2024-03-07T08:22:46;167.75;;;62.25;;
32216;SDS011;67098;51.140;4.088;2024-03-07T08:25:15;167.38;;;62.22;;
32216;SDS011;67098;51.140;4.088;2024-03-07T08:27:42;152.35;;;60.70;;
32216;SDS011;67098;51.140;4.088;2024-03-07T08:30:10;165.43;;;60.58;;
32216;SDS011;67098;51.140;4.088;2024-03-07T08:32:57;150.25;;;60.17;;
32216;SDS011;67098;51.140;4.088;2024-03-07T08:35:32;147.48;;;57.55;;
32216;SDS011;67098;51.140;4.088;2024-03-07T08:37:58;152.93;;;60.30;;
32216;SDS011;67098;51.140;4.088;2024-03-07T08:40:25;145.23;;;58.90;;
32216;SDS011;67098;51.140;4.088;2024-03-07T08:42:53;145.95;;;59.75;;
32216;SDS011;67098;51.140;4.088;2024-03-07T08:45:22;134.52;;;57.00;;
32216;SDS011;67098;51.140;4.088;2024-03-07T08:47:49;142.25;;;58.53;;
32216;SDS011;67098;51.140;4.088;2024-03-07T08:50:17;141.02;;;58.53;;
32216;SDS011;67098;51.140;4.088;2024-03-07T08:52:44;133.77;;;57.35;;
32216;SDS011;67098;51.140;4.088;2024-03-07T08:55:12;130.20;;;56.75;;
32216;SDS011;67098;51.140;4.088;2024-03-07T08:57:40;124.72;;;55.47;;
32216;SDS011;67098;51.140;4.088;2024-03-07T09:00:07;120.45;;;52.70;;
32216;SDS011;67098;51.140;4.088;2024-03-07T09:02:35;125.05;;;53.53;;
32216;SDS011;67098;51.140;4.088;2024-03-07T09:05:04;135.57;;;55.92;;
32216;SDS011;67098;51.140;4.088;2024-03-07T09:07:31;126.00;;;55.00;;
32216;SDS011;67098;51.140;4.088;2024-03-07T09:09:57;124.45;;;55.58;;
32216;SDS011;67098;51.140;4.088;2024-03-07T09:12:23;126.93;;;57.03;;
32216;SDS011;67098;51.140;4.088;2024-03-07T09:14:52;119.28;;;54.92;;
32216;SDS011;67098;51.140;4.088;2024-03-07T09:17:18;127.30;;;55.15;;
32216;SDS011;67098;51.140;4.088;2024-03-07T09:19:44;123.85;;;54.30;;
32216;SDS011;67098;51.140;4.088;2024-03-07T09:22:10;124.85;;;56.13;;
32216;SDS011;67098;51.140;4.088;2024-03-07T09:24:36;114.15;;;53.85;;
32216;SDS011;67098;51.140;4.088;2024-03-07T09:27:03;120.85;;;53.72;;
32216;SDS011;67098;51.140;4.088;2024-03-07T09:29:29;107.85;;;51.05;;
32216;SDS011;67098;51.140;4.088;2024-03-07T09:31:55;116.00;;;51.65;;
32216;SDS011;67098;51.140;4.088;2024-03-07T09:34:23;104.53;;;50.80;;
32216;SDS011;67098;51.140;4.088;2024-03-07T09:36:50;109.75;;;51.10;;
32216;SDS011;67098;51.140;4.088;2024-03-07T09:39:16;107.10;;;50.03;;
32216;SDS011;67098;51.140;4.088;2024-03-07T09:41:43;104.90;;;48.13;;
32216;SDS011;67098;51.140;4.088;2024-03-07T09:44:10;97.50;;;48.08;;
32216;SDS011;67098;51.140;4.088;2024-03-07T09:46:47;93.53;;;48.47;;
32216;SDS011;67098;51.140;4.088;2024-03-07T09:49:14;95.05;;;45.72;;
32216;SDS011;67098;51.140;4.088;2024-03-07T09:51:40;86.13;;;43.47;;
32216;SDS011;67098;51.140;4.088;2024-03-07T09:54:07;86.93;;;43.80;;
32216;SDS011;67098;51.140;4.088;2024-03-07T09:56:33;89.80;;;44.05;;
32216;SDS011;67098;51.140;4.088;2024-03-07T09:59:05;87.30;;;43.38;;
32216;SDS011;67098;51.140;4.088;2024-03-07T10:01:36;83.68;;;43.67;;
32216;SDS011;67098;51.140;4.088;2024-03-07T10:04:05;75.90;;;39.97;;
32216;SDS011;67098;51.140;4.088;2024-03-07T10:06:42;73.97;;;38.80;;
32216;SDS011;67098;51.140;4.088;2024-03-07T10:09:10;75.10;;;40.38;;
32216;SDS011;67098;51.140;4.088;2024-03-07T10:11:42;71.50;;;38.33;;
32216;SDS011;67098;51.140;4.088;2024-03-07T10:14:11;67.20;;;35.92;;
32216;SDS011;67098;51.140;4.088;2024-03-07T10:16:37;67.68;;;37.50;;
32216;SDS011;67098;51.140;4.088;2024-03-07T10:19:06;64.97;;;37.22;;
32216;SDS011;67098;51.140;4.088;2024-03-07T10:21:35;70.05;;;35.55;;
32216;SDS011;67098;51.140;4.088;2024-03-07T10:24:08;63.72;;;35.25;;
32216;SDS011;67098;51.140;4.088;2024-03-07T10:26:36;72.93;;;36.38;;
32216;SDS011;67098;51.140;4.088;2024-03-07T10:29:09;65.18;;;34.65;;
32216;SDS011;67098;51.140;4.088;2024-03-07T10:31:35;65.15;;;34.63;;
32216;SDS011;67098;51.140;4.088;2024-03-07T10:34:04;60.65;;;34.17;;
32216;SDS011;67098;51.140;4.088;2024-03-07T10:36:30;69.38;;;36.28;;
32216;SDS011;67098;51.140;4.088;2024-03-07T10:38:58;67.45;;;34.42;;
32216;SDS011;67098;51.140;4.088;2024-03-07T10:41:36;64.30;;;34.08;;
32216;SDS011;67098;51.140;4.088;2024-03-07T10:44:07;61.67;;;33.40;;
32216;SDS011;67098;51.140;4.088;2024-03-07T10:46:38;56.40;;;32.72;;
32216;SDS011;67098;51.140;4.088;2024-03-07T10:49:06;58.15;;;32.10;;
32216;SDS011;67098;51.140;4.088;2024-03-07T10:51:46;57.92;;;31.20;;
32216;SDS011;67098;51.140;4.088;2024-03-07T10:59:39;55.53;;;31.05;;
32216;SDS011;67098;51.140;4.088;2024-03-07T11:04:54;62.13;;;32.40;;
32216;SDS011;67098;51.140;4.088;2024-03-07T11:07:21;54.50;;;31.85;;
32216;SDS011;67098;51.140;4.088;2024-03-07T11:09:52;56.20;;;30.05;;
32216;SDS011;67098;51.140;4.088;2024-03-07T11:12:23;53.83;;;30.00;;
32216;SDS011;67098;51.140;4.088;2024-03-07T11:14:51;49.95;;;29.73;;
32216;SDS011;67098;51.140;4.088;2024-03-07T11:17:19;54.28;;;31.60;;
32216;SDS011;67098;51.140;4.088;2024-03-07T11:19:46;53.75;;;30.75;;
32216;SDS011;67098;51.140;4.088;2024-03-07T11:22:34;52.33;;;29.27;;
32216;SDS011;67098;51.140;4.088;2024-03-07T11:25:02;49.85;;;29.52;;
32216;SDS011;67098;51.140;4.088;2024-03-07T11:27:39;46.78;;;28.58;;
32216;SDS011;67098;51.140;4.088;2024-03-07T11:30:05;52.85;;;31.27;;
32216;SDS011;67098;51.140;4.088;2024-03-07T11:32:35;55.15;;;31.17;;
32216;SDS011;67098;51.140;4.088;2024-03-07T11:35:12;52.88;;;31.08;;
32216;SDS011;67098;51.140;4.088;2024-03-07T11:37:50;47.30;;;28.80;;
32216;SDS011;67098;51.140;4.088;2024-03-07T11:42:50;52.50;;;30.73;;
32216;SDS011;67098;51.140;4.088;2024-03-07T11:45:18;49.85;;;30.77;;
32216;SDS011;67098;51.140;4.088;2024-03-07T11:47:54;48.92;;;29.50;;
32216;SDS011;67098;51.140;4.088;2024-03-07T11:50:36;51.60;;;29.00;;
32216;SDS011;67098;51.140;4.088;2024-03-07T11:53:03;47.22;;;27.10;;
32216;SDS011;67098;51.140;4.088;2024-03-07T11:55:31;51.35;;;28.25;;
32216;SDS011;67098;51.140;4.088;2024-03-07T11:58:18;40.97;;;26.38;;
32216;SDS011;67098;51.140;4.088;2024-03-07T12:00:47;47.13;;;28.02;;
32216;SDS011;67098;51.140;4.088;2024-03-07T12:03:15;43.42;;;28.17;;
32216;SDS011;67098;51.140;4.088;2024-03-07T12:05:48;41.90;;;26.40;;
32216;SDS011;67098;51.140;4.088;2024-03-07T12:08:16;44.13;;;26.42;;
32216;SDS011;67098;51.140;4.088;2024-03-07T12:10:42;44.22;;;26.00;;
32216;SDS011;67098;51.140;4.088;2024-03-07T12:13:10;39.42;;;25.30;;
32216;SDS011;67098;51.140;4.088;2024-03-07T12:15:38;46.03;;;27.73;;
32216;SDS011;67098;51.140;4.088;2024-03-07T12:18:07;45.65;;;26.13;;
32216;SDS011;67098;51.140;4.088;2024-03-07T12:23:06;45.55;;;26.00;;
32216;SDS011;67098;51.140;4.088;2024-03-07T12:25:39;47.08;;;26.90;;
32216;SDS011;67098;51.140;4.088;2024-03-07T12:28:08;40.05;;;26.88;;
32216;SDS011;67098;51.140;4.088;2024-03-07T12:33:15;42.85;;;26.23;;
32216;SDS011;67098;51.140;4.088;2024-03-07T12:35:43;45.45;;;27.90;;
32216;SDS011;67098;51.140;4.088;2024-03-07T12:38:09;43.15;;;27.15;;
32216;SDS011;67098;51.140;4.088;2024-03-07T12:40:39;45.60;;;28.10;;
32216;SDS011;67098;51.140;4.088;2024-03-07T12:43:15;45.78;;;27.63;;
32216;SDS011;67098;51.140;4.088;2024-03-07T12:45:49;45.97;;;30.15;;
32216;SDS011;67098;51.140;4.088;2024-03-07T12:48:23;47.42;;;28.83;;
32216;SDS011;67098;51.140;4.088;2024-03-07T12:50:50;41.78;;;28.27;;
32216;SDS011;67098;51.140;4.088;2024-03-07T12:53:20;50.55;;;30.40;;
32216;SDS011;67098;51.140;4.088;2024-03-07T12:55:47;43.97;;;28.60;;
32216;SDS011;67098;51.140;4.088;2024-03-07T12:58:13;45.22;;;29.00;;
32216;SDS011;67098;51.140;4.088;2024-03-07T13:00:40;46.38;;;29.73;;
32216;SDS011;67098;51.140;4.088;2024-03-07T13:03:07;47.78;;;30.38;;
32216;SDS011;67098;51.140;4.088;2024-03-07T13:05:34;49.22;;;33.45;;
32216;SDS011;67098;51.140;4.088;2024-03-07T13:08:08;51.47;;;30.85;;
32216;SDS011;67098;51.140;4.088;2024-03-07T13:10:44;50.30;;;31.00;;
32216;SDS011;67098;51.140;4.088;2024-03-07T13:13:10;55.00;;;35.40;;
32216;SDS011;67098;51.140;4.088;2024-03-07T13:15:39;55.20;;;34.67;;
32216;SDS011;67098;51.140;4.088;2024-03-07T13:18:07;49.90;;;34.05;;
32216;SDS011;67098;51.140;4.088;2024-03-07T13:20:34;58.90;;;35.63;;
32216;SDS011;67098;51.140;4.088;2024-03-07T13:23:01;48.42;;;34.22;;
32216;SDS011;67098;51.140;4.088;2024-03-07T13:25:28;53.65;;;34.67;;
32216;SDS011;67098;51.140;4.088;2024-03-07T13:28:02;51.20;;;34.70;;
32216;SDS011;67098;51.140;4.088;2024-03-07T13:30:41;54.30;;;34.15;;
32216;SDS011;67098;51.140;4.088;2024-03-07T13:33:08;54.23;;;35.60;;
32216;SDS011;67098;51.140;4.088;2024-03-07T13:35:39;53.70;;;35.70;;
32216;SDS011;67098;51.140;4.088;2024-03-07T13:38:05;57.63;;;35.95;;
32216;SDS011;67098;51.140;4.088;2024-03-07T13:40:32;55.90;;;35.00;;
32216;SDS011;67098;51.140;4.088;2024-03-07T13:43:03;50.30;;;34.75;;
32216;SDS011;67098;51.140;4.088;2024-03-07T13:45:31;59.17;;;34.33;;
32216;SDS011;67098;51.140;4.088;2024-03-07T13:48:03;54.20;;;33.30;;
32216;SDS011;67098;51.140;4.088;2024-03-07T13:50:30;54.10;;;33.15;;
32216;SDS011;67098;51.140;4.088;2024-03-07T13:52:57;52.35;;;32.40;;
32216;SDS011;67098;51.140;4.088;2024-03-07T13:55:33;47.95;;;32.15;;
32216;SDS011;67098;51.140;4.088;2024-03-07T13:58:07;47.75;;;31.65;;
32216;SDS011;67098;51.140;4.088;2024-03-07T14:06:48;51.20;;;29.45;;
32216;SDS011;67098;51.140;4.088;2024-03-07T14:13:20;47.35;;;29.27;;
32216;SDS011;67098;51.140;4.088;2024-03-07T14:16:02;39.47;;;27.60;;
32216;SDS011;67098;51.140;4.088;2024-03-07T14:29:40;37.38;;;24.50;;
32216;SDS011;67098;51.140;4.088;2024-03-07T14:32:16;36.03;;;24.80;;
32216;SDS011;67098;51.140;4.088;2024-03-07T14:37:21;41.00;;;24.88;;
32216;SDS011;67098;51.140;4.088;2024-03-07T14:39:55;41.75;;;26.15;;
32216;SDS011;67098;51.140;4.088;2024-03-07T14:45:11;35.92;;;24.23;;
32216;SDS011;67098;51.140;4.088;2024-03-07T14:47:41;36.78;;;23.45;;
32216;SDS011;67098;51.140;4.088;2024-03-07T14:50:10;35.30;;;22.92;;
32216;SDS011;67098;51.140;4.088;2024-03-07T14:52:36;36.85;;;24.77;;
32216;SDS011;67098;51.140;4.088;2024-03-07T14:55:06;33.92;;;22.42;;
32216;SDS011;67098;51.140;4.088;2024-03-07T14:57:38;34.05;;;22.27;;
32216;SDS011;67098;51.140;4.088;2024-03-07T15:00:08;37.83;;;22.50;;
32216;SDS011;67098;51.140;4.088;2024-03-07T15:02:47;32.90;;;21.90;;
32216;SDS011;67098;51.140;4.088;2024-03-07T15:05:15;35.15;;;22.10;;
32216;SDS011;67098;51.140;4.088;2024-03-07T15:07:42;37.60;;;22.27;;
32216;SDS011;67098;51.140;4.088;2024-03-07T15:10:16;36.55;;;22.83;;